createdAt,value
2022-12-28T00:01:14.330Z,101533.78
2022-12-28T00:03:43.407Z,101535.09
2022-12-28T00:06:11.356Z,101532.16
2022-12-28T00:08:39.102Z,101521.63
2022-12-28T00:11:18.615Z,101508.50
2022-12-28T00:13:51.219Z,101500.78
2022-12-28T00:16:24.661Z,101504.19
2022-12-28T00:18:53.404Z,101504.28
2022-12-28T00:21:20.455Z,101495.31
2022-12-28T00:23:50.898Z,101491.38
2022-12-28T00:26:18.224Z,101484.81
2022-12-28T00:28:45.254Z,101478.41
2022-12-28T00:31:12.690Z,101472.34
2022-12-28T00:33:39.960Z,101465.59
2022-12-28T00:36:12.744Z,101463.09
2022-12-28T00:38:40.345Z,101465.38
2022-12-28T00:41:08.427Z,101451.25
2022-12-28T00:43:36.008Z,101449.63
2022-12-28T00:46:03.635Z,101440.06
2022-12-28T00:48:30.628Z,101427.06
2022-12-28T00:51:03.394Z,101422.34
2022-12-28T00:53:31.692Z,101414.75
2022-12-28T00:56:06.572Z,101420.50
2022-12-28T00:58:33.696Z,101414.09
2022-12-28T01:01:00.785Z,101413.06
2022-12-28T01:03:27.850Z,101417.34
2022-12-28T01:05:55.784Z,101421.31
2022-12-28T01:08:22.789Z,101404.69
2022-12-28T01:10:51.042Z,101412.78
2022-12-28T01:13:17.954Z,101410.66
2022-12-28T01:15:44.900Z,101407.88
2022-12-28T01:18:12.758Z,101404.22
2022-12-28T01:20:40.223Z,101399.13
2022-12-28T01:23:07.407Z,101413.50
2022-12-28T01:25:34.730Z,101405.59
2022-12-28T01:28:03.037Z,101400.69
2022-12-28T01:30:30.493Z,101406.97
2022-12-28T01:32:59.640Z,101399.72
2022-12-28T01:35:27.870Z,101386.72
2022-12-28T01:37:56.879Z,101378.34
2022-12-28T01:40:23.837Z,101387.03
2022-12-28T01:42:50.803Z,101367.44
2022-12-28T01:45:22.062Z,101368.13
2022-12-28T01:47:53.610Z,101360.34
2022-12-28T01:50:27.325Z,101353.59
2022-12-28T01:53:03.307Z,101355.56
2022-12-28T01:55:35.814Z,101351.66
2022-12-28T01:58:08.211Z,101345.03
2022-12-28T02:00:36.829Z,101331.22
2022-12-28T02:03:10.289Z,101324.63
2022-12-28T02:05:41.019Z,101324.50
2022-12-28T02:08:16.789Z,101311.81
2022-12-28T02:10:46.253Z,101320.69
2022-12-28T02:13:16.937Z,101312.78
2022-12-28T02:15:48.147Z,101303.56
2022-12-28T02:18:18.131Z,101287.44
2022-12-28T02:21:16.485Z,101271.59
2022-12-28T02:24:15.194Z,101270.28
2022-12-28T02:26:53.982Z,101265.31
2022-12-28T02:29:55.629Z,101257.41
2022-12-28T02:32:55.673Z,101257.63
2022-12-28T02:35:37.046Z,101249.56
2022-12-28T02:38:15.848Z,101240.84
2022-12-28T02:40:49.850Z,101233.41
2022-12-28T02:43:17.037Z,101230.13
2022-12-28T02:46:05.832Z,101213.00
2022-12-28T02:48:59.446Z,101220.06
2022-12-28T02:51:58.113Z,101207.09
2022-12-28T02:55:20.759Z,101201.22
2022-12-28T02:58:25.395Z,101187.22
2022-12-28T03:01:13.390Z,101187.81
2022-12-28T03:03:59.894Z,101184.06
2022-12-28T03:07:04.650Z,101177.16
2022-12-28T03:09:41.544Z,101171.44
2022-12-28T03:12:19.531Z,101171.09
2022-12-28T03:14:56.434Z,101156.28
2022-12-28T03:17:47.485Z,101147.50
2022-12-28T03:20:41.999Z,101140.97
2022-12-28T03:23:32.458Z,101138.22
2022-12-28T03:26:21.437Z,101133.31
2022-12-28T03:29:09.485Z,101124.06
2022-12-28T03:31:37.507Z,101120.97
2022-12-28T03:34:07.036Z,101103.25
2022-12-28T03:36:47.854Z,101104.06
2022-12-28T03:39:30.248Z,101086.34
2022-12-28T03:42:24.760Z,101084.69
2022-12-28T03:45:01.637Z,101089.28
2022-12-28T03:47:31.700Z,101082.72
2022-12-28T03:50:00.550Z,101076.50
2022-12-28T03:52:28.381Z,101072.22
2022-12-28T03:54:55.385Z,101084.75
2022-12-28T03:57:23.164Z,101059.41
2022-12-28T03:59:50.165Z,101051.56
2022-12-28T04:02:17.251Z,101057.78
2022-12-28T04:04:44.237Z,101044.94
2022-12-28T04:07:12.518Z,101048.88
2022-12-28T04:09:39.391Z,101026.06
2022-12-28T04:12:06.800Z,101027.34
2022-12-28T04:14:33.695Z,101020.94
2022-12-28T04:17:00.572Z,101023.91
2022-12-28T04:19:27.618Z,101010.09
2022-12-28T04:21:54.488Z,101012.59
2022-12-28T04:24:22.787Z,101002.88
2022-12-28T04:26:49.643Z,100995.66
2022-12-28T04:29:16.509Z,100991.03
2022-12-28T04:31:43.446Z,100988.06
2022-12-28T04:34:11.037Z,100968.84
2022-12-28T04:36:39.479Z,100966.56
2022-12-28T04:39:06.549Z,100964.06
2022-12-28T04:41:34.805Z,100951.25
2022-12-28T04:44:01.987Z,100955.72
2022-12-28T04:46:28.971Z,100956.81
2022-12-28T04:48:55.897Z,100953.25
2022-12-28T04:51:25.956Z,100941.72
2022-12-28T04:53:53.878Z,100939.94
2022-12-28T04:56:23.413Z,100945.34
2022-12-28T04:58:56.134Z,100942.56
2022-12-28T05:01:23.829Z,100942.22
2022-12-28T05:03:57.179Z,100934.00
2022-12-28T05:06:25.624Z,100932.88
2022-12-28T05:08:52.743Z,100929.59
2022-12-28T05:11:23.715Z,100931.88
2022-12-28T05:13:51.080Z,100930.56
2022-12-28T05:16:22.310Z,100921.34
2022-12-28T05:18:49.850Z,100910.66
2022-12-28T05:21:19.910Z,100912.13
2022-12-28T05:23:48.952Z,100917.38
2022-12-28T05:26:18.660Z,100902.28
2022-12-28T05:28:46.525Z,100909.19
2022-12-28T05:31:17.163Z,100911.16
2022-12-28T05:33:46.005Z,100908.84
2022-12-28T05:36:16.954Z,100913.13
2022-12-28T05:38:44.803Z,100898.00
2022-12-28T05:41:15.466Z,100901.78
2022-12-28T05:43:43.345Z,100896.97
2022-12-28T05:46:13.994Z,100896.63
2022-12-28T05:48:42.792Z,100883.16
2022-12-28T05:51:13.968Z,100882.00
2022-12-28T05:53:42.543Z,100868.34
2022-12-28T05:56:14.572Z,100867.72
2022-12-28T05:58:43.007Z,100867.44
2022-12-28T06:01:12.973Z,100873.69
2022-12-28T06:03:40.782Z,100869.56
2022-12-28T06:06:13.146Z,100873.66
2022-12-28T06:08:41.213Z,100863.78
2022-12-28T06:11:11.226Z,100869.06
2022-12-28T06:13:38.799Z,100865.13
2022-12-28T06:16:07.474Z,100862.63
2022-12-28T06:18:35.510Z,100862.44
2022-12-28T06:21:05.313Z,100866.28
2022-12-28T06:23:34.040Z,100850.16
2022-12-28T06:26:03.177Z,100850.97
2022-12-28T06:28:30.283Z,100849.47
2022-12-28T06:31:05.425Z,100840.97
2022-12-28T06:33:33.358Z,100841.81
2022-12-28T06:36:00.499Z,100834.97
2022-12-28T06:38:29.557Z,100840.44
2022-12-28T06:41:13.517Z,100824.88
2022-12-28T06:43:43.741Z,100837.94
2022-12-28T06:46:12.416Z,100819.47
2022-12-28T06:48:40.482Z,100812.41
2022-12-28T06:51:11.840Z,100821.72
2022-12-28T06:53:39.209Z,100823.06
2022-12-28T06:56:11.409Z,100814.53
2022-12-28T06:58:39.683Z,100812.94
2022-12-28T07:01:09.172Z,100815.44
2022-12-28T07:03:36.376Z,100802.88
2022-12-28T07:06:05.565Z,100806.66
2022-12-28T07:08:33.517Z,100803.59
2022-12-28T07:11:05.360Z,100801.50
2022-12-28T07:13:34.621Z,100800.00
2022-12-28T07:16:04.187Z,100799.88
2022-12-28T07:18:31.602Z,100810.25
2022-12-28T07:21:00.659Z,100808.63
2022-12-28T07:23:30.094Z,100809.69
2022-12-28T07:25:58.001Z,100816.22
2022-12-28T07:28:25.338Z,100803.31
2022-12-28T07:30:53.585Z,100816.22
2022-12-28T07:33:20.478Z,100817.63
2022-12-28T07:35:47.347Z,100814.09
2022-12-28T07:38:20.949Z,100815.47
2022-12-28T07:40:48.720Z,100822.84
2022-12-28T07:43:15.592Z,100824.59
2022-12-28T07:45:43.450Z,100820.03
2022-12-28T07:48:11.694Z,100832.13
2022-12-28T07:50:38.659Z,100815.19
2022-12-28T07:53:05.667Z,100827.03
2022-12-28T07:55:32.580Z,100827.59
2022-12-28T07:57:59.453Z,100822.59
2022-12-28T08:00:26.436Z,100825.50
2022-12-28T08:02:56.044Z,100818.47
2022-12-28T08:05:24.306Z,100821.41
2022-12-28T08:07:51.222Z,100809.81
2022-12-28T08:10:18.039Z,100819.38
2022-12-28T08:12:44.900Z,100818.91
2022-12-28T08:15:12.129Z,100814.81
2022-12-28T08:17:38.977Z,100814.09
2022-12-28T08:20:07.181Z,100817.38
2022-12-28T08:22:35.497Z,100816.75
2022-12-28T08:25:03.991Z,100820.19
2022-12-28T08:27:36.564Z,100823.38
2022-12-28T08:30:07.204Z,100819.38
2022-12-28T08:32:34.068Z,100836.84
2022-12-28T08:35:01.039Z,100825.16
2022-12-28T08:37:27.968Z,100825.84
2022-12-28T08:39:56.225Z,100817.53
2022-12-28T08:42:23.058Z,100829.38
2022-12-28T08:44:49.925Z,100826.59
2022-12-28T08:47:16.876Z,100822.22
2022-12-28T08:49:44.542Z,100810.41
2022-12-28T08:52:11.446Z,100834.44
2022-12-28T08:54:38.330Z,100827.19
2022-12-28T08:57:06.562Z,100827.72
2022-12-28T08:59:33.410Z,100823.31
2022-12-28T09:02:00.346Z,100821.22
2022-12-28T09:04:27.433Z,100824.56
2022-12-28T09:06:54.474Z,100833.69
2022-12-28T09:09:21.884Z,100828.66
2022-12-28T09:11:49.223Z,100827.78
2022-12-28T09:14:23.293Z,100841.56
2022-12-28T09:16:52.223Z,100822.06
2022-12-28T09:19:19.609Z,100820.06
2022-12-28T09:21:48.943Z,100822.84
2022-12-28T09:24:16.017Z,100827.44
2022-12-28T09:26:43.181Z,100828.44
2022-12-28T09:29:16.168Z,100828.56
2022-12-28T09:31:44.587Z,100836.00
2022-12-28T09:37:02.931Z,100845.03
2022-12-28T09:39:29.972Z,100840.31
2022-12-28T09:42:01.336Z,100838.75
2022-12-28T09:44:49.361Z,100845.03
2022-12-28T09:47:33.967Z,100837.69
2022-12-28T09:50:24.947Z,100841.19
2022-12-28T09:53:13.579Z,100835.09
2022-12-28T09:55:53.408Z,100837.16
2022-12-28T09:58:21.870Z,100833.75
2022-12-28T10:00:53.999Z,100835.78
2022-12-28T10:03:27.057Z,100829.72
2022-12-28T10:05:57.513Z,100828.84
2022-12-28T10:08:26.366Z,100830.63
2022-12-28T10:10:59.360Z,100823.50
2022-12-28T10:13:54.085Z,100811.94
2022-12-28T10:16:23.969Z,100810.50
2022-12-28T10:18:52.707Z,100816.84
2022-12-28T10:21:31.605Z,100821.78
2022-12-28T10:26:48.236Z,100819.09
2022-12-28T10:29:20.475Z,100820.94
2022-12-28T10:31:59.700Z,100817.78
2022-12-28T10:34:35.711Z,100816.66
2022-12-28T10:37:15.504Z,100814.63
2022-12-28T10:39:51.538Z,100803.66
2022-12-28T10:42:25.440Z,100812.63
2022-12-28T10:44:57.572Z,100805.72
2022-12-28T10:47:34.933Z,100812.00
2022-12-28T10:52:58.120Z,100813.09
2022-12-28T10:55:30.820Z,100809.00
2022-12-28T10:58:33.753Z,100802.44
2022-12-28T11:01:05.679Z,100795.28
2022-12-28T11:03:37.294Z,100810.09
2022-12-28T11:06:22.748Z,100805.78
2022-12-28T11:09:16.400Z,100797.84
2022-12-28T11:11:47.127Z,100809.34
2022-12-28T11:14:28.085Z,100805.06
2022-12-28T11:16:55.026Z,100799.66
2022-12-28T11:19:24.329Z,100794.66
2022-12-28T11:21:53.255Z,100791.78
2022-12-28T11:24:26.961Z,100794.63
2022-12-28T11:26:54.179Z,100780.28
2022-12-28T11:29:21.230Z,100786.28
2022-12-28T11:31:56.645Z,100784.50
2022-12-28T11:34:28.271Z,100783.31
2022-12-28T11:36:57.084Z,100776.94
2022-12-28T11:39:44.418Z,100764.69
2022-12-28T11:44:59.979Z,100769.59
2022-12-28T11:47:36.212Z,100766.00
2022-12-28T11:50:50.225Z,100772.97
2022-12-28T11:53:58.372Z,100769.34
2022-12-28T11:56:28.597Z,100769.59
2022-12-28T11:59:21.518Z,100763.22
2022-12-28T12:01:57.011Z,100760.19
2022-12-28T12:04:43.705Z,100754.69
2022-12-28T12:07:47.833Z,100765.28
2022-12-28T12:10:35.351Z,100763.03
2022-12-28T12:13:37.498Z,100763.66
2022-12-28T12:16:15.975Z,100748.56
2022-12-28T12:18:48.706Z,100751.69
2022-12-28T12:21:31.317Z,100751.75
2022-12-28T12:24:12.955Z,100748.94
2022-12-28T12:26:50.955Z,100742.66
2022-12-28T12:29:25.952Z,100737.97
2022-12-28T12:32:02.352Z,100737.13
2022-12-28T12:34:43.666Z,100731.84
2022-12-28T12:37:45.924Z,100732.06
2022-12-28T12:41:10.181Z,100727.81
2022-12-28T12:43:56.756Z,100728.22
2022-12-28T12:47:05.391Z,100721.09
2022-12-28T12:50:17.351Z,100735.13
2022-12-28T12:53:05.288Z,100715.78
2022-12-28T12:55:55.824Z,100717.63
2022-12-28T12:58:30.574Z,100710.94
2022-12-28T13:01:22.912Z,100706.03
2022-12-28T13:03:50.937Z,100721.47
2022-12-28T13:06:24.218Z,100712.09
2022-12-28T13:08:59.090Z,100715.59
2022-12-28T13:11:30.874Z,100707.91
2022-12-28T13:13:57.783Z,100705.06
2022-12-28T13:16:31.005Z,100708.88
2022-12-28T13:19:00.990Z,100702.34
2022-12-28T13:21:30.728Z,100702.56
2022-12-28T13:23:57.653Z,100691.91
2022-12-28T13:26:29.242Z,100687.88
2022-12-28T13:29:01.468Z,100690.69
2022-12-28T13:31:41.902Z,100696.59
2022-12-28T13:34:18.699Z,100688.19
2022-12-28T13:36:53.577Z,100679.63
2022-12-28T13:39:21.441Z,100681.66
2022-12-28T13:41:52.065Z,100679.63
2022-12-28T13:44:29.908Z,100681.22
2022-12-28T13:47:05.711Z,100673.66
2022-12-28T13:49:41.702Z,100674.31
2022-12-28T13:52:16.820Z,100673.63
2022-12-28T13:54:52.175Z,100677.06
2022-12-28T14:00:11.405Z,100669.75
2022-12-28T14:02:41.763Z,100669.75
2022-12-28T14:05:16.107Z,100666.16
2022-12-28T14:07:43.301Z,100665.34
2022-12-28T14:10:11.696Z,100665.72
2022-12-28T14:12:39.471Z,100666.16
2022-12-28T14:15:09.450Z,100656.81
2022-12-28T14:17:38.629Z,100656.22
2022-12-28T14:20:09.884Z,100658.03
2022-12-28T14:22:40.071Z,100656.00
2022-12-28T14:25:10.509Z,100653.47
2022-12-28T14:27:42.524Z,100647.78
2022-12-28T14:30:23.395Z,100642.03
2022-12-28T14:32:51.660Z,100631.69
2022-12-28T14:35:23.386Z,100638.78
2022-12-28T14:37:54.032Z,100642.03
2022-12-28T14:40:30.463Z,100631.06
2022-12-28T14:43:03.330Z,100635.16
2022-12-28T14:48:37.117Z,100638.38
2022-12-28T14:51:24.019Z,100639.56
2022-12-28T14:54:17.977Z,100637.94
2022-12-28T14:56:51.283Z,100628.81
2022-12-28T14:59:25.339Z,100633.09
2022-12-28T15:00:25.281Z,100649.84
2022-12-28T15:01:52.585Z,100640.03
2022-12-28T15:04:37.215Z,100633.91
2022-12-28T15:07:07.635Z,100630.59
2022-12-28T15:09:34.890Z,100629.81
2022-12-28T15:12:13.685Z,100624.31
2022-12-28T15:14:41.403Z,100620.47
2022-12-28T15:17:09.460Z,100630.59
2022-12-28T15:19:36.433Z,100620.25
2022-12-28T15:22:04.954Z,100638.94
2022-12-28T15:24:34.281Z,100628.53
2022-12-28T15:27:01.728Z,100632.47
2022-12-28T15:29:55.683Z,100610.88
2022-12-28T15:32:16.137Z,100614.34
2022-12-28T15:34:43.227Z,100613.16
2022-12-28T15:37:11.456Z,100614.44
2022-12-28T15:39:38.356Z,100617.47
2022-12-28T15:42:05.439Z,100614.00
2022-12-28T15:44:32.446Z,100605.06
2022-12-28T15:46:59.482Z,100609.78
2022-12-28T15:49:26.569Z,100614.84
2022-12-28T15:51:53.631Z,100612.63
2022-12-28T15:54:21.868Z,100607.34
2022-12-28T15:56:53.699Z,100604.69
2022-12-28T15:59:20.959Z,100591.69
2022-12-28T16:01:48.232Z,100593.31
2022-12-28T16:04:15.449Z,100599.81
2022-12-28T16:06:44.940Z,100599.03
2022-12-28T16:09:13.813Z,100600.25
2022-12-28T16:11:42.821Z,100608.19
2022-12-28T16:14:15.328Z,100597.59
2022-12-28T16:16:43.753Z,100593.13
2022-12-28T16:19:12.727Z,100584.34
2022-12-28T16:21:40.170Z,100583.31
2022-12-28T16:24:07.805Z,100576.22
2022-12-28T16:26:34.996Z,100571.97
2022-12-28T16:29:03.461Z,100565.63
2022-12-28T16:31:33.340Z,100565.84
2022-12-28T16:34:03.707Z,100558.50
2022-12-28T16:36:31.650Z,100558.09
2022-12-28T16:38:58.930Z,100556.44
2022-12-28T16:41:31.402Z,100542.78
2022-12-28T16:44:05.994Z,100522.38
2022-12-28T16:46:33.479Z,100480.47
2022-12-28T16:49:01.948Z,100466.88
2022-12-28T16:51:29.829Z,100457.28
2022-12-28T16:53:57.281Z,100435.75
2022-12-28T16:56:24.293Z,100515.28
2022-12-28T16:58:55.833Z,100509.63
2022-12-28T17:01:24.215Z,100508.59
2022-12-28T17:03:51.190Z,100505.78
2022-12-28T17:06:18.961Z,100501.69
2022-12-28T17:08:45.963Z,100498.41
2022-12-28T17:11:13.564Z,100497.19
2022-12-28T17:13:40.473Z,100495.16
2022-12-28T17:16:08.779Z,100482.13
2022-12-28T17:18:37.984Z,100485.38
2022-12-28T17:21:09.967Z,100471.56
2022-12-28T17:23:39.308Z,100469.09
2022-12-28T17:26:06.588Z,100468.31
2022-12-28T17:28:33.533Z,100470.97
2022-12-28T17:31:07.528Z,100464.44
2022-12-28T17:33:39.164Z,100462.19
2022-12-28T17:36:08.955Z,100466.06
2022-12-28T17:38:36.078Z,100454.88
2022-12-28T17:41:08.910Z,100444.91
2022-12-28T17:43:36.097Z,100441.06
2022-12-28T17:46:03.694Z,100422.94
2022-12-28T17:48:31.028Z,100427.59
2022-12-28T17:50:58.959Z,100414.22
2022-12-28T17:53:29.102Z,100410.31
2022-12-28T17:55:55.951Z,100418.47
2022-12-28T17:58:22.844Z,100410.13
2022-12-28T18:00:54.880Z,100403.03
2022-12-28T18:03:22.028Z,100392.84
2022-12-28T18:05:49.428Z,100394.28
2022-12-28T18:08:16.618Z,100389.00
2022-12-28T18:10:45.652Z,100397.13
2022-12-28T18:13:14.084Z,100382.47
2022-12-28T18:15:43.160Z,100381.66
2022-12-28T18:18:10.410Z,100377.19
2022-12-28T18:20:37.364Z,100364.16
2022-12-28T18:23:04.344Z,100368.03
2022-12-28T18:25:31.764Z,100356.03
2022-12-28T18:27:59.992Z,100353.00
2022-12-28T18:30:26.995Z,100336.72
2022-12-28T18:32:53.911Z,100347.50
2022-12-28T18:35:24.849Z,100332.84
2022-12-28T18:37:51.903Z,100330.00
2022-12-28T18:40:18.969Z,100346.28
2022-12-28T18:42:45.822Z,100329.59
2022-12-28T18:45:14.303Z,100330.63
2022-12-28T18:47:41.237Z,100335.28
2022-12-28T18:50:09.333Z,100327.78
2022-12-28T18:52:36.263Z,100339.38
2022-12-28T18:55:03.925Z,100327.75
2022-12-28T18:57:30.827Z,100315.56
2022-12-28T18:59:57.689Z,100313.94
2022-12-28T19:02:26.009Z,100322.25
2022-12-28T19:04:53.315Z,100307.16
2022-12-28T19:07:20.408Z,100316.50
2022-12-28T19:10:12.966Z,100309.59
2022-12-28T19:12:41.085Z,100305.31
2022-12-28T19:15:09.523Z,100298.19
2022-12-28T19:17:37.821Z,100295.56
2022-12-28T19:20:06.342Z,100290.88
2022-12-28T19:22:33.310Z,100287.44
2022-12-28T19:25:00.250Z,100293.69
2022-12-28T19:27:27.324Z,100290.00
2022-12-28T19:29:54.178Z,100275.38
2022-12-28T19:32:21.140Z,100273.38
2022-12-28T19:34:49.436Z,100258.91
2022-12-28T19:37:16.295Z,100270.28
2022-12-28T19:39:43.204Z,100251.59
2022-12-28T19:42:10.133Z,100257.09
2022-12-28T19:44:37.011Z,100255.44
2022-12-28T19:47:03.942Z,100248.97
2022-12-28T19:49:30.855Z,100238.84
2022-12-28T19:51:59.092Z,100247.97
2022-12-28T19:54:25.997Z,100243.69
2022-12-28T19:56:52.837Z,100231.09
2022-12-28T19:59:19.725Z,100231.91
2022-12-28T20:01:46.672Z,100227.06
2022-12-28T20:04:14.609Z,100212.00
2022-12-28T20:06:43.578Z,100214.03
2022-12-28T20:09:13.445Z,100208.75
2022-12-28T20:11:40.706Z,100205.09
2022-12-28T20:14:10.045Z,100207.94
2022-12-28T20:16:37.492Z,100187.19
2022-12-28T20:19:06.835Z,100192.88
2022-12-28T20:21:35.333Z,100194.50
2022-12-28T20:24:02.935Z,100183.94
2022-12-28T20:26:32.465Z,100182.09
2022-12-28T20:29:01.327Z,100172.97
2022-12-28T20:31:29.182Z,100170.97
2022-12-28T20:33:56.287Z,100168.28
2022-12-28T20:36:26.546Z,100154.09
2022-12-28T20:38:55.101Z,100161.63
2022-12-28T20:41:43.862Z,100164.88
2022-12-28T20:44:16.298Z,100154.31
2022-12-28T20:46:44.184Z,100146.63
2022-12-28T20:49:12.162Z,100132.81
2022-12-28T20:51:41.176Z,100149.66
2022-12-28T20:54:10.287Z,100134.00
2022-12-28T20:56:38.481Z,100130.75
2022-12-28T20:59:05.806Z,100133.59
2022-12-28T21:01:35.718Z,100118.56
2022-12-28T21:04:03.059Z,100113.31
2022-12-28T21:06:29.993Z,100112.69
2022-12-28T21:08:56.859Z,100112.91
2022-12-28T21:11:23.836Z,100104.38
2022-12-28T21:13:53.802Z,100108.44
2022-12-28T21:16:20.786Z,100106.59
2022-12-28T21:18:50.592Z,100091.38
2022-12-28T21:21:21.777Z,100094.84
2022-12-28T21:23:49.280Z,100097.69
2022-12-28T21:26:18.880Z,100097.47
2022-12-28T21:28:45.806Z,100093.63
2022-12-28T21:31:13.820Z,100100.72
2022-12-28T21:33:41.279Z,100095.66
2022-12-28T21:36:14.983Z,100101.13
2022-12-28T21:38:44.098Z,100107.22
2022-12-28T21:41:14.310Z,100088.13
2022-12-28T21:43:42.095Z,100096.25
2022-12-28T21:46:13.394Z,100097.06
2022-12-28T21:48:41.491Z,100092.38
2022-12-28T21:51:31.162Z,100081.44
2022-12-28T21:53:59.178Z,100076.75
2022-12-28T21:56:26.485Z,100085.06
2022-12-28T21:58:53.313Z,100083.25
2022-12-28T22:01:39.234Z,100074.69
2022-12-28T22:04:25.199Z,100075.47
2022-12-28T22:06:53.428Z,100069.56
2022-12-28T22:09:38.650Z,100071.81
2022-12-28T22:12:24.684Z,100075.31
2022-12-28T22:15:11.541Z,100062.88
2022-12-28T22:17:38.424Z,100064.09
2022-12-28T22:20:06.884Z,100060.03
2022-12-28T22:22:35.083Z,100071.41
2022-12-28T22:25:02.062Z,100065.66
2022-12-28T22:27:28.937Z,100053.47
2022-12-28T22:29:55.784Z,100050.19
2022-12-28T22:32:24.028Z,100057.47
2022-12-28T22:34:50.938Z,100062.41
2022-12-28T22:37:18.107Z,100054.22
2022-12-28T22:39:46.369Z,100045.66
2022-12-28T22:42:15.373Z,100056.81
2022-12-28T22:44:42.419Z,100040.81
2022-12-28T22:47:09.563Z,100047.28
2022-12-28T22:49:36.515Z,100043.22
2022-12-28T22:52:03.682Z,100050.31
2022-12-28T22:54:30.581Z,100042.53
2022-12-28T22:56:58.792Z,100038.72
2022-12-28T22:59:25.746Z,100024.31
2022-12-28T23:01:53.169Z,100019.97
2022-12-28T23:04:20.567Z,100023.25
2022-12-28T23:06:47.513Z,100037.44
2022-12-28T23:09:14.558Z,100034.56
2022-12-28T23:11:41.585Z,100024.56
2022-12-28T23:14:32.243Z,100016.63
2022-12-28T23:17:01.079Z,100034.78
2022-12-28T23:19:47.500Z,100030.84
2022-12-28T23:22:37.536Z,100021.91
2022-12-28T23:25:24.525Z,100033.50
2022-12-28T23:27:52.090Z,100020.63
2022-12-28T23:30:22.374Z,100013.94
2022-12-28T23:32:51.611Z,100008.44
2022-12-28T23:35:21.294Z,100009.75
2022-12-28T23:37:48.904Z,100006.28
2022-12-28T23:40:18.992Z,100010.16
2022-12-28T23:42:46.219Z,99999.06
2022-12-28T23:45:16.234Z,100004.03
2022-12-28T23:47:45.331Z,99992.81
2022-12-28T23:50:15.407Z,99983.03
2022-12-28T23:52:42.799Z,99978.28
2022-12-28T23:55:10.609Z,99992.22
2022-12-28T23:57:38.336Z,99984.75
